createdAt,value
2022-11-15T00:01:16.551Z,94.51
2022-11-15T00:03:44.282Z,94.64
2022-11-15T00:06:10.650Z,94.28
2022-11-15T00:08:37.062Z,94.63
2022-11-15T00:11:03.954Z,94.66
2022-11-15T00:13:31.133Z,94.70
2022-11-15T00:15:57.922Z,94.85
2022-11-15T00:18:24.322Z,94.96
2022-11-15T00:20:52.046Z,94.80
2022-11-15T00:23:18.400Z,94.89
2022-11-15T00:25:44.747Z,95.03
2022-11-15T00:28:11.141Z,94.99
2022-11-15T00:30:37.534Z,95.24
2022-11-15T00:33:04.289Z,94.90
2022-11-15T00:35:32.127Z,95.02
2022-11-15T00:38:01.069Z,95.13
2022-11-15T00:40:27.641Z,94.84
2022-11-15T00:42:54.093Z,94.99
2022-11-15T00:45:20.434Z,94.75
2022-11-15T00:47:46.826Z,94.32
2022-11-15T00:50:15.294Z,94.70
2022-11-15T00:52:42.167Z,94.64
2022-11-15T00:55:14.057Z,95.15
2022-11-15T00:57:40.406Z,95.09
2022-11-15T01:00:07.429Z,94.92
2022-11-15T01:02:33.925Z,95.29
2022-11-15T01:05:00.294Z,95.67
2022-11-15T01:07:26.748Z,95.75
2022-11-15T01:09:53.157Z,95.22
2022-11-15T01:12:20.861Z,95.19
2022-11-15T01:14:47.234Z,95.06
2022-11-15T01:17:13.592Z,95.10
2022-11-15T01:19:39.968Z,95.12
2022-11-15T01:22:06.308Z,95.11
2022-11-15T01:24:32.693Z,94.84
2022-11-15T01:26:59.047Z,94.86
2022-11-15T01:29:26.790Z,95.10
2022-11-15T01:31:53.878Z,95.11
2022-11-15T01:34:20.245Z,94.92
2022-11-15T01:36:46.601Z,94.77
2022-11-15T01:39:12.962Z,94.82
2022-11-15T01:41:39.293Z,94.57
2022-11-15T01:44:24.387Z,94.32
2022-11-15T01:46:52.107Z,94.47
2022-11-15T01:49:20.360Z,94.16
2022-11-15T01:51:46.732Z,94.57
2022-11-15T01:54:16.157Z,94.37
2022-11-15T01:56:45.750Z,94.28
2022-11-15T01:59:12.586Z,94.55
2022-11-15T02:01:39.148Z,94.35
2022-11-15T02:04:09.572Z,94.46
2022-11-15T02:06:36.638Z,94.23
2022-11-15T02:09:03.682Z,94.26
2022-11-15T02:11:30.246Z,94.41
2022-11-15T02:13:57.601Z,94.74
2022-11-15T02:16:28.639Z,94.58
2022-11-15T02:18:58.770Z,94.30
2022-11-15T02:21:31.009Z,94.14
2022-11-15T02:24:08.069Z,92.91
2022-11-15T02:26:47.089Z,93.86
2022-11-15T02:29:16.591Z,93.98
2022-11-15T02:31:49.494Z,94.27
2022-11-15T02:34:21.551Z,94.24
2022-11-15T02:36:50.501Z,92.71
2022-11-15T02:39:20.957Z,93.13
2022-11-15T02:41:48.893Z,93.07
2022-11-15T02:44:19.634Z,93.52
2022-11-15T02:46:50.802Z,93.80
2022-11-15T02:49:17.468Z,94.08
2022-11-15T02:51:45.394Z,93.76
2022-11-15T02:54:13.114Z,93.24
2022-11-15T02:56:39.537Z,93.78
2022-11-15T02:59:20.176Z,94.34
2022-11-15T03:01:55.742Z,93.98
2022-11-15T03:04:29.682Z,93.46
2022-11-15T03:07:01.894Z,94.00
2022-11-15T03:09:34.360Z,94.32
2022-11-15T03:12:04.809Z,94.96
2022-11-15T03:14:35.489Z,94.98
2022-11-15T03:17:06.183Z,94.83
2022-11-15T03:19:35.281Z,94.73
2022-11-15T03:22:04.589Z,94.57
2022-11-15T03:24:34.302Z,94.70
2022-11-15T03:27:02.914Z,94.55
2022-11-15T03:29:33.322Z,94.34
2022-11-15T03:32:01.658Z,94.24
2022-11-15T03:34:32.290Z,93.99
2022-11-15T03:36:58.695Z,93.83
2022-11-15T03:39:26.245Z,93.06
2022-11-15T03:41:57.998Z,92.37
2022-11-15T03:44:32.304Z,91.18
2022-11-15T03:47:01.531Z,91.23
2022-11-15T03:49:32.045Z,92.06
2022-11-15T03:51:59.030Z,92.76
2022-11-15T03:54:25.528Z,92.77
2022-11-15T03:56:51.882Z,92.80
2022-11-15T03:59:18.247Z,93.04
2022-11-15T04:01:44.582Z,93.67
2022-11-15T04:04:10.937Z,93.48
2022-11-15T04:06:38.804Z,93.45
2022-11-15T04:09:05.227Z,93.19
2022-11-15T04:11:31.567Z,93.30
2022-11-15T04:13:57.931Z,93.45
2022-11-15T04:16:24.266Z,93.54
2022-11-15T04:18:50.645Z,92.22
2022-11-15T04:21:17.111Z,90.89
2022-11-15T04:23:44.847Z,91.98
2022-11-15T04:26:12.443Z,91.44
2022-11-15T04:28:38.889Z,90.49
2022-11-15T04:31:05.429Z,90.93
2022-11-15T04:33:32.038Z,90.52
2022-11-15T04:35:58.602Z,90.10
2022-11-15T04:38:24.972Z,90.94
2022-11-15T04:40:52.902Z,92.05
2022-11-15T04:43:19.275Z,91.46
2022-11-15T04:45:45.605Z,91.49
2022-11-15T04:48:11.962Z,92.27
2022-11-15T04:50:38.344Z,92.21
2022-11-15T04:53:04.721Z,93.00
2022-11-15T04:55:31.088Z,93.58
2022-11-15T04:58:02.270Z,94.26
2022-11-15T05:00:29.242Z,94.54
2022-11-15T05:02:55.628Z,95.27
2022-11-15T05:05:22.009Z,95.33
2022-11-15T05:07:48.336Z,95.20
2022-11-15T05:10:14.700Z,94.27
2022-11-15T05:12:41.046Z,95.05
2022-11-15T05:15:09.397Z,95.91
2022-11-15T05:17:35.898Z,96.29
2022-11-15T05:20:02.265Z,96.08
2022-11-15T05:22:28.614Z,96.36
2022-11-15T05:24:54.995Z,96.02
2022-11-15T05:27:21.331Z,95.58
2022-11-15T05:29:47.683Z,95.53
2022-11-15T05:32:16.381Z,95.10
2022-11-15T05:34:42.790Z,94.74
2022-11-15T05:37:09.133Z,93.24
2022-11-15T05:39:35.548Z,92.61
2022-11-15T05:42:05.252Z,93.32
2022-11-15T05:44:32.191Z,93.99
2022-11-15T05:46:59.031Z,94.85
2022-11-15T05:49:29.803Z,94.92
2022-11-15T05:51:57.244Z,95.22
2022-11-15T05:54:24.258Z,95.39
2022-11-15T05:56:50.684Z,95.15
2022-11-15T05:59:17.762Z,94.44
2022-11-15T06:01:44.207Z,94.63
2022-11-15T06:04:10.633Z,94.84
2022-11-15T06:06:38.336Z,96.10
2022-11-15T06:09:04.697Z,96.00
2022-11-15T06:11:31.035Z,95.94
2022-11-15T06:13:57.414Z,96.55
2022-11-15T06:16:23.753Z,96.84
2022-11-15T06:18:50.114Z,96.61
2022-11-15T06:21:16.438Z,96.37
2022-11-15T06:23:44.169Z,96.18
2022-11-15T06:26:10.598Z,96.58
2022-11-15T06:28:36.965Z,96.83
2022-11-15T06:31:03.959Z,95.78
2022-11-15T06:33:30.590Z,95.51
2022-11-15T06:36:00.397Z,95.15
2022-11-15T06:38:27.252Z,94.84
2022-11-15T06:40:55.004Z,94.85
2022-11-15T06:43:21.385Z,94.27
2022-11-15T06:45:47.718Z,94.62
2022-11-15T06:48:15.140Z,94.70
2022-11-15T06:50:41.478Z,93.63
2022-11-15T06:53:07.828Z,94.12
2022-11-15T06:55:34.180Z,93.96
2022-11-15T06:58:01.890Z,93.70
2022-11-15T07:00:28.237Z,93.71
2022-11-15T07:02:54.596Z,92.35
2022-11-15T07:05:20.953Z,91.66
2022-11-15T07:07:51.865Z,91.53
2022-11-15T07:10:18.204Z,92.65
2022-11-15T07:12:47.456Z,93.42
2022-11-15T07:15:15.293Z,93.33
2022-11-15T07:17:41.676Z,92.85
2022-11-15T07:20:08.477Z,93.56
2022-11-15T07:22:34.821Z,93.62
2022-11-15T07:25:01.167Z,94.09
2022-11-15T07:27:27.914Z,94.30
2022-11-15T07:29:54.414Z,94.35
2022-11-15T07:32:22.126Z,94.62
2022-11-15T07:34:48.510Z,94.23
2022-11-15T07:37:14.853Z,94.66
2022-11-15T07:39:41.203Z,94.58
2022-11-15T07:42:07.545Z,94.34
2022-11-15T07:44:33.887Z,94.07
2022-11-15T07:47:00.228Z,94.16
2022-11-15T07:49:27.953Z,94.14
2022-11-15T07:51:54.321Z,94.69
2022-11-15T07:54:20.682Z,94.17
2022-11-15T07:56:47.010Z,94.08
2022-11-15T07:59:13.360Z,93.78
2022-11-15T08:01:39.890Z,93.69
2022-11-15T08:04:06.348Z,93.59
2022-11-15T08:06:34.074Z,93.54
2022-11-15T08:09:00.529Z,93.91
2022-11-15T08:11:26.889Z,93.71
2022-11-15T08:13:53.246Z,93.64
2022-11-15T08:16:19.587Z,93.63
2022-11-15T08:18:46.040Z,93.44
2022-11-15T08:21:18.324Z,93.28
2022-11-15T08:23:46.541Z,93.43
2022-11-15T08:26:12.953Z,93.34
2022-11-15T08:28:39.496Z,93.10
2022-11-15T08:31:05.892Z,92.85
2022-11-15T08:33:33.055Z,92.95
2022-11-15T08:36:00.039Z,93.15
2022-11-15T08:38:26.432Z,93.65
2022-11-15T08:41:00.829Z,93.94
2022-11-15T08:43:27.204Z,93.60
2022-11-15T08:45:56.278Z,92.82
2022-11-15T08:48:22.730Z,92.42
2022-11-15T08:50:49.069Z,92.41
2022-11-15T08:53:15.424Z,91.88
2022-11-15T08:55:42.000Z,91.64
2022-11-15T08:58:09.709Z,91.32
2022-11-15T09:00:36.121Z,91.66
2022-11-15T09:03:04.596Z,91.16
2022-11-15T09:05:30.926Z,90.20
2022-11-15T09:07:57.336Z,90.43
2022-11-15T09:10:23.788Z,90.05
2022-11-15T09:12:50.183Z,89.70
2022-11-15T09:15:17.911Z,89.73
2022-11-15T09:17:44.267Z,90.34
2022-11-15T09:20:11.130Z,90.21
2022-11-15T09:22:37.476Z,89.98
2022-11-15T09:25:07.301Z,90.46
2022-11-15T09:27:36.553Z,90.96
2022-11-15T09:30:03.106Z,92.08
2022-11-15T09:32:36.308Z,92.13
2022-11-15T09:35:05.597Z,92.46
2022-11-15T09:37:32.511Z,92.29
2022-11-15T09:39:58.855Z,92.42
2022-11-15T09:42:31.896Z,92.20
2022-11-15T09:45:05.394Z,92.50
2022-11-15T09:47:55.948Z,93.52
2022-11-15T09:50:29.723Z,93.54
2022-11-15T09:52:57.245Z,93.62
2022-11-15T09:55:30.345Z,93.49
2022-11-15T09:57:59.893Z,93.87
2022-11-15T10:00:46.050Z,94.31
2022-11-15T10:03:15.750Z,94.11
2022-11-15T10:05:43.077Z,94.00
2022-11-15T10:08:21.519Z,93.91
2022-11-15T10:10:49.421Z,93.61
2022-11-15T10:13:20.890Z,93.55
2022-11-15T10:15:47.586Z,94.10
2022-11-15T10:18:20.418Z,93.86
2022-11-15T10:20:48.777Z,93.72
2022-11-15T10:23:16.534Z,94.11
2022-11-15T10:25:42.908Z,94.08
2022-11-15T10:28:12.703Z,93.91
2022-11-15T10:30:40.443Z,93.87
2022-11-15T10:33:24.708Z,93.64
2022-11-15T10:36:14.681Z,93.14
2022-11-15T10:38:51.958Z,93.19
2022-11-15T10:41:19.173Z,92.76
2022-11-15T10:43:45.931Z,92.62
2022-11-15T10:46:44.915Z,92.70
2022-11-15T10:49:14.178Z,92.85
2022-11-15T10:51:43.764Z,92.69
2022-11-15T10:54:13.753Z,92.94
2022-11-15T10:56:43.197Z,92.93
2022-11-15T10:59:16.887Z,93.15
2022-11-15T11:01:46.957Z,93.32
2022-11-15T11:04:13.380Z,93.46
2022-11-15T11:06:48.565Z,93.33
2022-11-15T11:09:23.732Z,93.05
2022-11-15T11:11:52.886Z,92.97
2022-11-15T11:14:21.735Z,92.88
2022-11-15T11:16:50.063Z,93.24
2022-11-15T11:19:25.961Z,93.38
2022-11-15T11:21:58.422Z,93.21
2022-11-15T11:24:32.143Z,93.26
2022-11-15T11:27:04.849Z,93.13
2022-11-15T11:29:37.914Z,93.03
2022-11-15T11:32:11.329Z,93.09
2022-11-15T11:34:45.768Z,91.87
2022-11-15T11:37:15.653Z,91.53
2022-11-15T11:39:46.291Z,90.98
2022-11-15T11:42:17.840Z,90.53
2022-11-15T11:44:52.985Z,90.42
2022-11-15T11:47:22.178Z,90.18
2022-11-15T11:49:51.326Z,89.81
2022-11-15T11:52:22.926Z,89.63
2022-11-15T11:54:55.228Z,89.72
2022-11-15T11:57:25.937Z,89.51
2022-11-15T11:59:54.240Z,89.72
2022-11-15T12:02:26.080Z,89.74
2022-11-15T12:04:53.860Z,89.45
2022-11-15T12:07:32.085Z,88.89
2022-11-15T12:10:00.545Z,89.21
2022-11-15T12:12:31.214Z,89.04
2022-11-15T12:15:00.173Z,88.91
2022-11-15T12:17:28.023Z,88.15
2022-11-15T12:19:57.240Z,87.09
2022-11-15T12:22:37.754Z,87.00
2022-11-15T12:25:07.225Z,86.63
2022-11-15T12:27:36.967Z,86.60
2022-11-15T12:30:04.762Z,86.32
2022-11-15T12:32:32.772Z,86.53
2022-11-15T12:35:00.019Z,86.94
2022-11-15T12:37:50.229Z,87.20
2022-11-15T12:40:20.231Z,87.19
2022-11-15T12:42:58.132Z,87.15
2022-11-15T12:45:25.985Z,87.16
2022-11-15T12:47:52.410Z,87.60
2022-11-15T12:50:42.829Z,87.60
2022-11-15T12:53:28.382Z,87.51
2022-11-15T12:58:49.725Z,87.76
2022-11-15T13:01:34.871Z,87.15
2022-11-15T13:04:22.263Z,87.04
2022-11-15T13:06:49.897Z,86.93
2022-11-15T13:09:34.615Z,87.43
2022-11-15T13:12:01.196Z,87.89
2022-11-15T13:14:43.009Z,86.73
2022-11-15T13:17:23.270Z,86.37
2022-11-15T13:19:53.860Z,86.10
2022-11-15T13:22:20.292Z,86.30
2022-11-15T13:24:46.639Z,86.19
2022-11-15T13:27:16.729Z,86.47
2022-11-15T13:29:44.997Z,86.13
2022-11-15T13:32:12.414Z,86.23
2022-11-15T13:34:54.086Z,86.46
2022-11-15T13:37:30.984Z,86.04
2022-11-15T13:40:10.716Z,86.90
2022-11-15T13:42:40.548Z,86.71
2022-11-15T13:45:16.004Z,87.38
2022-11-15T13:47:42.388Z,88.39
2022-11-15T13:50:12.519Z,89.10
2022-11-15T13:52:40.367Z,89.79
2022-11-15T13:55:11.816Z,90.34
2022-11-15T13:57:42.674Z,90.33
2022-11-15T14:00:25.676Z,89.86
2022-11-15T14:02:52.498Z,89.97
2022-11-15T14:05:20.262Z,90.08
2022-11-15T14:07:53.748Z,89.89
2022-11-15T14:10:26.012Z,90.41
2022-11-15T14:12:52.577Z,90.13
2022-11-15T14:15:28.337Z,90.06
2022-11-15T14:17:54.719Z,89.78
2022-11-15T14:20:27.092Z,90.28
2022-11-15T14:22:54.055Z,90.75
2022-11-15T14:25:21.560Z,90.70
2022-11-15T14:28:02.786Z,91.06
2022-11-15T14:30:30.511Z,90.80
2022-11-15T14:32:56.879Z,91.03
2022-11-15T14:35:23.916Z,91.18
2022-11-15T14:37:50.648Z,91.23
2022-11-15T14:40:19.072Z,90.99
2022-11-15T14:42:46.297Z,91.60
2022-11-15T14:45:13.544Z,91.50
2022-11-15T14:47:41.400Z,91.58
2022-11-15T14:50:11.597Z,93.00
2022-11-15T14:52:37.966Z,92.58
2022-11-15T14:55:11.153Z,93.89
2022-11-15T14:57:37.518Z,94.44
2022-11-15T15:00:04.400Z,94.13
2022-11-15T15:02:30.995Z,93.90
2022-11-15T15:04:58.732Z,93.11
2022-11-15T15:07:25.164Z,93.29
2022-11-15T15:09:51.564Z,92.72
2022-11-15T15:12:18.901Z,93.88
2022-11-15T15:14:45.595Z,94.35
2022-11-15T15:17:11.968Z,95.46
2022-11-15T15:19:38.821Z,95.07
2022-11-15T15:22:06.658Z,97.21
2022-11-15T15:24:33.021Z,96.75
2022-11-15T15:26:59.381Z,96.93
2022-11-15T15:29:25.761Z,96.89
2022-11-15T15:31:52.115Z,97.08
2022-11-15T15:34:18.460Z,96.69
2022-11-15T15:36:44.784Z,96.06
2022-11-15T15:39:12.577Z,96.28
2022-11-15T15:41:38.911Z,97.74
2022-11-15T15:44:05.305Z,98.32
2022-11-15T15:46:31.652Z,97.93
2022-11-15T15:48:57.996Z,96.86
2022-11-15T15:51:24.328Z,96.65
2022-11-15T15:53:50.697Z,96.58
2022-11-15T15:56:18.400Z,96.15
2022-11-15T15:58:44.748Z,96.22
2022-11-15T16:01:11.130Z,95.78
2022-11-15T16:03:37.569Z,96.11
2022-11-15T16:06:04.021Z,96.12
2022-11-15T16:08:42.661Z,96.32
2022-11-15T16:11:18.079Z,95.96
2022-11-15T16:13:44.606Z,95.35
2022-11-15T16:16:13.578Z,95.36
2022-11-15T16:18:39.935Z,96.02
2022-11-15T16:21:06.260Z,96.13
2022-11-15T16:23:32.632Z,96.37
2022-11-15T16:25:58.978Z,97.37
2022-11-15T16:28:27.789Z,97.27
2022-11-15T16:31:00.488Z,97.56
2022-11-15T16:33:26.830Z,97.56
2022-11-15T16:35:53.305Z,98.32
2022-11-15T16:38:19.643Z,98.12
2022-11-15T16:40:46.040Z,98.16
2022-11-15T16:43:12.539Z,97.77
2022-11-15T16:45:40.276Z,97.07
2022-11-15T16:48:06.877Z,96.96
2022-11-15T16:50:33.948Z,96.58
2022-11-15T16:53:00.968Z,96.29
2022-11-15T16:55:27.770Z,95.64
2022-11-15T16:57:54.300Z,95.31
2022-11-15T17:00:21.289Z,96.18
2022-11-15T17:02:49.536Z,96.66
2022-11-15T17:05:20.031Z,97.61
2022-11-15T17:07:47.370Z,97.98
2022-11-15T17:10:13.757Z,97.96
2022-11-15T17:12:40.090Z,98.54
2022-11-15T17:15:06.810Z,97.74
2022-11-15T17:17:33.284Z,97.36
2022-11-15T17:20:00.979Z,97.28
2022-11-15T17:22:27.324Z,97.27
2022-11-15T17:24:53.699Z,97.32
2022-11-15T17:27:20.025Z,96.76
2022-11-15T17:29:46.377Z,96.49
2022-11-15T17:32:12.708Z,96.69
2022-11-15T17:34:39.054Z,97.08
2022-11-15T17:37:07.049Z,96.88
2022-11-15T17:39:33.382Z,97.14
2022-11-15T17:41:59.711Z,97.69
2022-11-15T17:44:26.044Z,97.76
2022-11-15T17:46:52.407Z,97.73
2022-11-15T17:49:18.774Z,98.30
2022-11-15T17:51:48.837Z,97.70
2022-11-15T17:54:17.734Z,98.18
2022-11-15T17:56:44.111Z,98.36
2022-11-15T17:59:14.761Z,98.20
2022-11-15T18:01:42.359Z,98.43
2022-11-15T18:04:09.368Z,97.77
2022-11-15T18:06:36.238Z,97.11
2022-11-15T18:09:03.891Z,97.29
2022-11-15T18:11:32.162Z,97.58
2022-11-15T18:13:59.823Z,97.80
2022-11-15T18:16:27.085Z,98.22
2022-11-15T18:18:53.698Z,98.25
2022-11-15T18:21:20.749Z,98.28
2022-11-15T18:23:47.740Z,97.87
2022-11-15T18:26:15.188Z,97.78
2022-11-15T18:28:43.493Z,97.83
2022-11-15T18:31:13.090Z,97.69
2022-11-15T18:33:39.427Z,97.27
2022-11-15T18:36:07.453Z,97.25
2022-11-15T18:38:34.027Z,97.13
2022-11-15T18:41:05.350Z,97.15
2022-11-15T18:43:31.908Z,96.88
2022-11-15T18:46:03.216Z,96.55
2022-11-15T18:48:29.964Z,96.34
2022-11-15T18:51:04.767Z,96.67
2022-11-15T18:53:32.389Z,96.65
2022-11-15T18:56:00.356Z,96.72
2022-11-15T18:58:28.683Z,96.89
2022-11-15T19:00:59.902Z,96.77
2022-11-15T19:03:30.632Z,96.57
2022-11-15T19:06:00.685Z,96.44
2022-11-15T19:08:28.704Z,96.61
2022-11-15T19:11:02.183Z,96.23
2022-11-15T19:13:28.948Z,96.35
2022-11-15T19:15:56.942Z,96.38
2022-11-15T19:18:23.277Z,96.37
2022-11-15T19:20:50.965Z,96.57
2022-11-15T19:23:17.343Z,96.18
2022-11-15T19:25:43.706Z,95.24
2022-11-15T19:28:10.078Z,95.52
2022-11-15T19:30:36.400Z,95.64
2022-11-15T19:33:02.775Z,95.59
2022-11-15T19:35:29.121Z,96.11
2022-11-15T19:37:56.840Z,95.92
2022-11-15T19:40:23.166Z,95.05
2022-11-15T19:42:49.512Z,95.47
2022-11-15T19:45:15.849Z,95.66
2022-11-15T19:47:42.195Z,95.99
2022-11-15T19:50:08.987Z,96.75
2022-11-15T19:52:35.325Z,97.12
2022-11-15T19:55:03.154Z,97.26
2022-11-15T19:57:29.525Z,97.42
2022-11-15T19:59:55.848Z,97.51
2022-11-15T20:02:22.218Z,97.13
2022-11-15T20:04:48.610Z,96.94
2022-11-15T20:07:15.007Z,95.80
2022-11-15T20:09:41.363Z,95.11
2022-11-15T20:12:09.122Z,95.63
2022-11-15T20:14:35.483Z,95.96
2022-11-15T20:17:01.858Z,96.16
2022-11-15T20:19:28.214Z,96.08
2022-11-15T20:21:54.581Z,96.61
2022-11-15T20:24:21.073Z,95.70
2022-11-15T20:26:47.451Z,95.04
2022-11-15T20:29:15.297Z,95.60
2022-11-15T20:31:41.662Z,95.97
2022-11-15T20:34:08.152Z,96.16
2022-11-15T20:36:34.492Z,96.39
2022-11-15T20:39:00.973Z,96.43
2022-11-15T20:41:27.572Z,96.29
2022-11-15T20:43:53.942Z,96.29
2022-11-15T20:46:21.641Z,96.34
2022-11-15T20:48:48.025Z,96.38
2022-11-15T20:51:15.347Z,96.77
2022-11-15T20:53:41.907Z,96.37
2022-11-15T20:56:10.395Z,96.03
2022-11-15T20:58:37.223Z,96.18
2022-11-15T21:01:04.281Z,96.24
2022-11-15T21:03:32.159Z,96.63
2022-11-15T21:05:58.490Z,97.01
2022-11-15T21:08:24.859Z,96.85
2022-11-15T21:10:51.945Z,96.88
2022-11-15T21:13:18.341Z,96.61
2022-11-15T21:15:44.682Z,96.70
2022-11-15T21:18:11.057Z,96.68
2022-11-15T21:20:38.802Z,96.80
2022-11-15T21:23:05.200Z,96.55
2022-11-15T21:25:32.437Z,96.44
2022-11-15T21:27:58.800Z,96.01
2022-11-15T21:30:25.723Z,95.87
2022-11-15T21:32:52.087Z,96.12
2022-11-15T21:35:18.448Z,94.56
2022-11-15T21:37:46.179Z,94.26
2022-11-15T21:40:12.770Z,94.70
2022-11-15T21:42:39.109Z,94.33
2022-11-15T21:45:06.206Z,93.98
2022-11-15T21:47:32.537Z,94.54
2022-11-15T21:49:58.905Z,95.11
2022-11-15T21:52:25.390Z,95.24
2022-11-15T21:54:53.100Z,95.35
2022-11-15T21:57:19.481Z,95.77
2022-11-15T21:59:45.844Z,96.09
2022-11-15T22:02:12.187Z,96.46
2022-11-15T22:04:38.566Z,96.09
2022-11-15T22:07:04.960Z,95.05
2022-11-15T22:09:31.326Z,95.36
2022-11-15T22:11:59.023Z,95.39
2022-11-15T22:14:25.397Z,95.10
2022-11-15T22:16:51.744Z,95.72
2022-11-15T22:19:18.084Z,96.01
2022-11-15T22:21:44.452Z,96.22
2022-11-15T22:24:10.823Z,96.09
2022-11-15T22:26:37.167Z,96.36
2022-11-15T22:29:04.885Z,96.18
2022-11-15T22:31:31.222Z,96.37
2022-11-15T22:33:57.576Z,96.50
2022-11-15T22:36:28.444Z,96.62
2022-11-15T22:38:59.332Z,96.57
2022-11-15T22:41:25.670Z,96.68
2022-11-15T22:43:52.065Z,96.79
2022-11-15T22:46:19.775Z,96.80
2022-11-15T22:48:46.121Z,96.74
2022-11-15T22:51:12.479Z,96.26
2022-11-15T22:53:51.114Z,96.38
2022-11-15T22:56:20.242Z,95.76
2022-11-15T22:58:46.804Z,95.48
2022-11-15T23:01:18.574Z,95.62
2022-11-15T23:03:46.321Z,95.38
2022-11-15T23:06:12.699Z,95.80
2022-11-15T23:08:39.253Z,95.64
2022-11-15T23:11:05.900Z,96.03
2022-11-15T23:13:32.985Z,95.76
2022-11-15T23:16:03.426Z,94.82
2022-11-15T23:18:32.736Z,95.02
2022-11-15T23:21:07.123Z,95.21
2022-11-15T23:23:34.523Z,95.04
2022-11-15T23:26:01.089Z,94.98
2022-11-15T23:28:27.461Z,94.80
2022-11-15T23:30:53.973Z,94.75
2022-11-15T23:33:20.375Z,95.10
2022-11-15T23:35:53.171Z,94.89
2022-11-15T23:38:20.889Z,94.64
2022-11-15T23:40:50.891Z,94.79
2022-11-15T23:43:17.220Z,95.06
2022-11-15T23:45:43.580Z,94.51
2022-11-15T23:48:09.950Z,94.76
2022-11-15T23:50:36.505Z,94.87
2022-11-15T23:53:02.896Z,94.89
2022-11-15T23:55:30.681Z,93.75
2022-11-15T23:57:57.194Z,93.57
